Time;durP1;ratioP1;P1;durP2;ratioP2;P2;SDS_P1;SDS_P2;PMS_P1;PMS_P2;Temp;Humidity;BMP_temperature;BMP_pressure;BME280_temperature;BME280_humidity;BME280_pressure;Samples;Min_cycle;Max_cycle;Signal;HPM_P1;HPM_P2
2023/07/27 00:02:18;;;;;;;12.32;5.40;;;12.80;99.90;;;;;;6100303;23;20467;-85
2023/07/27 00:04:50;;;;;;;12.40;5.30;;;12.70;99.90;;;;;;6099985;23;20032;-85
2023/07/27 00:07:31;;;;;;;15.88;7.50;;;13.30;99.90;;;;;;6126520;23;20081;-85
2023/07/27 00:10:20;;;;;;;21.75;14.73;;;14.10;99.90;;;;;;6125081;23;20374;-85
2023/07/27 00:16:51;;;;;;;25.63;17.63;;;13.10;99.90;;;;;;6102031;23;20360;-85
2023/07/27 00:22:06;;;;;;;20.58;12.85;;;14.20;99.90;;;;;;6126240;23;20435;-85
2023/07/27 00:24:49;;;;;;;18.58;11.13;;;13.20;99.90;;;;;;6125191;23;20014;-85
2023/07/27 00:27:14;;;;;;;15.93;8.45;;;14.40;99.90;;;;;;6123103;23;20024;-85
2023/07/27 00:29:55;;;;;;;15.85;7.72;;;13.40;99.90;;;;;;6099331;23;20089;-85
2023/07/27 00:32:39;;;;;;;12.75;7.10;;;13.30;99.90;;;;;;6125316;23;20020;-85
2023/07/27 00:35:29;;;;;;;;;;;13.30;99.90;;;;;;6126678;23;20116;-85
2023/07/27 00:38:15;;;;;;;12.02;6.05;;;13.30;99.90;;;;;;6098510;23;19956;-85
2023/07/27 00:40:47;;;;;;;12.10;5.88;;;13.40;99.90;;;;;;6098832;23;20066;-85
2023/07/27 00:46:20;;;;;;;14.38;5.85;;;13.20;99.90;;;;;;6122748;23;20046;-85
2023/07/27 00:49:07;;;;;;;12.98;6.00;;;14.40;99.90;;;;;;6099420;23;20096;-85
2023/07/27 00:54:16;;;;;;;12.73;5.53;;;13.40;99.90;;;;;;6124789;23;20469;-85
2023/07/27 00:57:03;;;;;;;12.30;6.05;;;13.50;99.90;;;;;;6098932;23;20023;-85
2023/07/27 00:59:53;;;;;;;13.95;5.82;;;13.50;99.90;;;;;;6098775;23;20022;-84
2023/07/27 01:02:40;;;;;;;12.40;6.15;;;13.50;99.90;;;;;;6125671;23;20092;-85
2023/07/27 01:05:07;;;;;;;14.60;5.95;;;14.40;99.90;;;;;;6099085;23;20014;-86
2023/07/27 01:07:54;;;;;;;12.98;5.82;;;13.60;99.90;;;;;;6099241;23;20021;-85
2023/07/27 01:11:30;;;;;;;12.23;6.15;;;13.70;99.90;;;;;;6125697;23;20073;-85
2023/07/27 01:14:21;;;;;;;11.50;5.57;;;13.70;99.90;;;;;;6038334;23;20517;-85
2023/07/27 01:17:30;;;;;;;12.25;6.07;;;14.30;99.90;;;;;;6099082;23;20025;-85
2023/07/27 01:20:47;;;;;;;12.15;5.65;;;14.70;99.90;;;;;;5955199;24;20016;-85
2023/07/27 01:27:33;;;;;;;12.38;5.90;;;14.00;99.90;;;;;;5957223;24;20427;-85
2023/07/27 01:30:57;;;;;;;11.73;5.70;;;13.60;99.90;;;;;;5980969;24;20034;-85
2023/07/27 01:34:13;;;;;;;;;;;;;;;;;;;;;
2023/07/27 01:37:22;;;;;;;11.15;5.55;;;13.30;99.90;;;;;;5957564;24;20091;-85
2023/07/27 01:39:51;;;;;;;12.40;5.40;;;13.60;99.90;;;;;;5981187;24;20385;-85
2023/07/27 01:42:30;;;;;;;12.35;5.60;;;14.20;99.90;;;;;;6079959;23;20021;-85
2023/07/27 01:45:14;;;;;;;11.88;5.25;;;13.40;99.90;;;;;;6101069;23;20375;-84
2023/07/27 01:48:02;;;;;;;12.55;5.80;;;13.40;99.90;;;;;;6100302;23;20073;-85
2023/07/27 01:50:50;;;;;;;12.82;5.45;;;14.20;99.90;;;;;;6101492;23;20342;-85
2023/07/27 01:53:18;;;;;;;11.80;5.20;;;13.50;99.90;;;;;;6100278;23;20017;-85
2023/07/27 01:55:47;;;;;;;14.52;5.55;;;14.20;99.90;;;;;;6095121;23;20090;-85
2023/07/27 01:58:34;;;;;;;13.50;5.53;;;13.30;99.90;;;;;;6127579;23;20054;-86
2023/07/27 02:01:13;;;;;;;13.13;6.00;;;13.80;99.90;;;;;;6101086;23;20029;-85
2023/07/27 02:03:41;;;;;;;11.77;5.78;;;13.20;99.90;;;;;;6099350;23;20386;-85
2023/07/27 02:07:01;;;;;;;11.35;5.65;;;14.20;99.90;;;;;;6112283;23;20021;-85
2023/07/27 02:09:52;;;;;;;12.85;5.60;;;12.70;99.90;;;;;;6155426;23;20057;-85
2023/07/27 02:12:38;;;;;;;11.48;5.00;;;12.50;99.90;;;;;;6156029;23;20092;-85
2023/07/27 02:15:51;;;;;;;13.35;5.40;;;13.20;99.90;;;;;;6154514;23;20070;-85
2023/07/27 02:18:21;;;;;;;11.88;5.75;;;13.10;99.90;;;;;;6155060;23;20096;-85
2023/07/27 02:21:01;;;;;;;12.77;5.60;;;13.10;99.90;;;;;;6154618;23;20042;-85
2023/07/27 02:23:28;;;;;;;13.05;5.85;;;13.10;99.90;;;;;;6154061;23;20021;-85
2023/07/27 02:25:57;;;;;;;12.27;5.18;;;13.10;99.90;;;;;;6123611;23;20028;-85
2023/07/27 02:32:09;;;;;;;13.15;6.40;;;13.00;99.90;;;;;;6123590;23;20441;-85
2023/07/27 02:34:37;;;;;;;11.27;5.45;;;13.10;99.90;;;;;;6099192;23;20026;-85
2023/07/27 02:37:03;;;;;;;11.25;5.43;;;13.10;99.90;;;;;;6122834;23;20804;-85
2023/07/27 02:39:54;;;;;;;12.35;5.40;;;13.10;99.90;;;;;;6099788;23;20021;-85
2023/07/27 02:42:38;;;;;;;11.40;6.00;;;13.10;99.90;;;;;;6099595;23;20022;-85
2023/07/27 02:45:15;;;;;;;12.60;5.82;;;13.10;99.90;;;;;;6123401;23;20446;-85
2023/07/27 02:47:50;;;;;;;12.32;5.78;;;13.10;99.90;;;;;;6123988;23;20018;-85
2023/07/27 02:50:15;;;;;;;12.43;6.32;;;14.20;99.90;;;;;;6123949;23;20057;-85
2023/07/27 02:53:02;;;;;;;12.10;5.47;;;13.20;99.90;;;;;;6097009;23;20509;-85
2023/07/27 02:55:57;;;;;;;13.43;6.20;;;13.00;99.90;;;;;;6124074;23;20485;-85
2023/07/27 02:58:32;;;;;;;13.88;6.60;;;13.30;99.90;;;;;;6131271;23;20022;-85
2023/07/27 03:01:13;;;;;;;13.13;6.70;;;13.20;99.90;;;;;;6126363;23;20060;-85
2023/07/27 03:03:44;;;;;;;13.27;6.50;;;13.30;99.90;;;;;;6125719;23;20072;-85
2023/07/27 03:06:10;;;;;;;13.70;6.95;;;14.00;99.90;;;;;;6124627;23;20017;-85
2023/07/27 03:11:50;;;;;;;14.00;7.13;;;13.40;99.90;;;;;;6126242;23;20450;-85
2023/07/27 03:14:38;;;;;;;14.73;7.10;;;13.90;99.90;;;;;;6100732;23;20022;-85
2023/07/27 03:17:09;;;;;;;14.32;7.30;;;13.30;99.90;;;;;;5956778;24;20072;-86
2023/07/27 03:20:05;;;;;;;13.25;6.75;;;14.10;99.90;;;;;;5956454;24;20016;-85
2023/07/27 03:22:43;;;;;;;14.30;6.93;;;13.40;99.90;;;;;;5980557;24;20016;-85
2023/07/27 03:25:15;;;;;;;13.35;6.53;;;14.30;99.90;;;;;;5980310;24;20434;-85
2023/07/27 03:31:50;;;;;;;13.98;6.90;;;13.50;99.90;;;;;;6027081;23;20081;-85
2023/07/27 03:34:41;;;;;;;14.55;7.30;;;13.50;99.90;;;;;;6059896;23;20025;-85
2023/07/27 03:37:07;;;;;;;13.32;7.30;;;13.50;99.90;;;;;;6099948;23;20021;-86
2023/07/27 03:39:57;;;;;;;14.77;8.02;;;13.60;99.90;;;;;;6126747;23;20014;-85
2023/07/27 03:42:22;;;;;;;15.60;7.70;;;13.60;99.90;;;;;;6126263;23;20443;-85
2023/07/27 03:45:13;;;;;;;14.27;7.72;;;14.10;99.90;;;;;;6126160;23;20024;-85
2023/07/27 03:47:57;;;;;;;13.25;6.95;;;13.60;99.90;;;;;;6098876;23;20383;-85
2023/07/27 03:50:48;;;;;;;;;;;13.50;99.90;;;;;;6100645;23;20093;-86
2023/07/27 03:53:30;;;;;;;14.27;7.70;;;13.40;99.90;;;;;;6099784;23;19992;-85
2023/07/27 03:55:56;;;;;;;13.25;7.18;;;13.50;99.90;;;;;;6125031;23;20014;-85
2023/07/27 03:58:43;;;;;;;15.20;7.68;;;14.60;99.90;;;;;;6126037;23;20025;-85
2023/07/27 04:01:27;;;;;;;14.10;7.20;;;13.30;99.90;;;;;;6098525;23;20018;-84
2023/07/27 04:04:36;;;;;;;18.05;8.52;;;13.50;99.90;;;;;;6098492;23;20100;-85
2023/07/27 04:07:02;;;;;;;14.95;7.97;;;13.10;99.90;;;;;;6098437;23;20018;-85
2023/07/27 04:09:43;;;;;;;15.80;7.82;;;13.50;99.90;;;;;;6124835;23;20316;-84
2023/07/27 04:12:24;;;;;;;14.15;7.35;;;14.20;99.90;;;;;;6125717;23;20029;-85
2023/07/27 04:15:28;;;;;;;14.20;7.65;;;13.40;99.90;;;;;;6097922;23;20320;-85
2023/07/27 04:18:03;;;;;;;;;;;13.40;99.90;;;;;;5956957;23;20028;-85
2023/07/27 04:20:48;;;;;;;13.85;7.15;;;12.90;99.90;;;;;;5980027;24;19918;-85
2023/07/27 04:23:13;;;;;;;14.82;7.35;;;13.40;99.90;;;;;;5979404;24;20524;-85
2023/07/27 04:25:45;;;;;;;13.80;7.43;;;14.40;99.90;;;;;;6006781;23;20022;-85
2023/07/27 04:28:11;;;;;;;14.55;8.23;;;14.30;99.90;;;;;;6099971;23;20458;-85
2023/07/27 04:30:45;;;;;;;15.40;7.88;;;14.40;99.90;;;;;;6098287;23;20022;-85
2023/07/27 04:33:17;;;;;;;15.70;8.77;;;13.80;99.90;;;;;;6129296;23;20093;-85
2023/07/27 04:35:43;;;;;;;16.20;8.48;;;13.30;99.90;;;;;;6103224;23;20018;-85
2023/07/27 04:38:08;;;;;;;17.38;8.27;;;14.40;99.90;;;;;;6103252;23;20077;-85
2023/07/27 04:40:34;;;;;;;15.82;8.02;;;13.30;99.90;;;;;;6101379;23;20025;-85
2023/07/27 04:43:06;;;;;;;16.30;8.13;;;13.30;99.90;;;;;;6103971;23;20461;-85
2023/07/27 04:46:05;;;;;;;15.73;8.20;;;13.80;99.90;;;;;;6128039;23;20010;-85
2023/07/27 04:49:30;;;;;;;17.45;8.70;;;13.30;99.90;;;;;;6102165;23;20037;-86
2023/07/27 04:51:59;;;;;;;18.25;9.32;;;13.30;99.90;;;;;;6128167;23;20021;-86
2023/07/27 04:54:25;;;;;;;18.05;8.45;;;13.30;99.90;;;;;;6100589;23;20011;-86
2023/07/27 04:56:50;;;;;;;17.40;9.40;;;13.30;99.90;;;;;;6099076;23;20498;-86
2023/07/27 04:59:31;;;;;;;17.23;8.73;;;13.30;99.90;;;;;;6124941;23;20021;-86
2023/07/27 05:01:57;;;;;;;17.80;9.73;;;13.80;99.90;;;;;;6123090;23;20018;-85
2023/07/27 05:04:23;;;;;;;19.33;9.70;;;13.50;99.90;;;;;;6096367;23;20018;-86
2023/07/27 05:07:01;;;;;;;19.38;9.18;;;13.40;99.90;;;;;;6098475;23;20454;-86
2023/07/27 05:09:26;;;;;;;18.35;9.43;;;13.40;99.90;;;;;;6100061;23;20025;-86
2023/07/27 05:11:52;;;;;;;18.52;9.35;;;14.40;99.90;;;;;;6097851;23;20462;-86
2023/07/27 05:14:17;;;;;;;16.23;8.88;;;13.40;99.90;;;;;;6099585;23;20068;-86
2023/07/27 05:16:52;;;;;;;19.48;9.25;;;13.40;99.90;;;;;;6098504;23;20026;-85
2023/07/27 05:19:18;;;;;;;17.08;8.57;;;13.80;99.90;;;;;;6098774;23;20199;-85
2023/07/27 05:21:43;;;;;;;16.58;8.77;;;14.40;99.90;;;;;;6124814;23;20057;-85
2023/07/27 05:24:10;;;;;;;18.20;9.55;;;14.20;99.90;;;;;;6125911;23;20021;-85
2023/07/27 05:27:01;;;;;;;18.58;8.88;;;13.50;99.90;;;;;;6124193;23;20018;-85
2023/07/27 05:29:37;;;;;;;16.85;9.43;;;13.50;99.90;;;;;;6045359;23;20772;-85
2023/07/27 05:35:56;;;;;;;17.65;8.90;;;13.60;99.90;;;;;;6098704;23;20038;-85
2023/07/27 05:38:22;;;;;;;18.45;9.32;;;13.60;99.90;;;;;;6099524;23;20486;-85
2023/07/27 05:40:47;;;;;;;19.67;10.48;;;13.60;99.90;;;;;;6124248;23;20056;-85
2023/07/27 05:43:22;;;;;;;20.65;11.43;;;14.10;99.90;;;;;;6099682;23;20077;-84
2023/07/27 05:45:50;;;;;;;23.58;13.65;;;13.60;99.90;;;;;;6098428;23;20028;-84
2023/07/27 05:48:15;;;;;;;23.95;13.13;;;13.70;99.90;;;;;;6098937;23;20045;-86
2023/07/27 05:50:53;;;;;;;22.17;13.43;;;14.60;99.90;;;;;;6124668;23;20022;-85
2023/07/27 05:53:31;;;;;;;24.08;13.25;;;13.70;99.90;;;;;;6125957;23;20312;-87
2023/07/27 05:55:56;;;;;;;19.40;12.15;;;13.70;99.90;;;;;;6097601;23;20042;-84
2023/07/27 05:58:37;;;;;;;20.83;11.65;;;14.60;99.90;;;;;;6125070;23;20036;-83
2023/07/27 06:01:04;;;;;;;22.13;12.23;;;13.70;99.90;;;;;;6098427;23;20021;-84
2023/07/27 06:03:30;;;;;;;22.20;12.75;;;13.80;99.90;;;;;;6099661;23;20394;-84
2023/07/27 06:05:56;;;;;;;21.50;12.50;;;13.80;99.90;;;;;;6099615;23;20034;-83
2023/07/27 06:08:22;;;;;;;22.85;12.07;;;13.80;99.90;;;;;;6126670;23;20472;-83
2023/07/27 06:10:48;;;;;;;20.77;11.50;;;13.90;99.90;;;;;;6127004;23;20085;-85
2023/07/27 06:13:14;;;;;;;22.27;12.40;;;13.80;99.90;;;;;;6099485;23;20525;-85
2023/07/27 06:15:47;;;;;;;25.83;13.25;;;13.90;99.90;;;;;;6124831;23;20018;-86
2023/07/27 06:18:13;;;;;;;22.45;12.40;;;13.90;99.90;;;;;;6127366;23;20022;-85
2023/07/27 06:20:39;;;;;;;23.17;12.80;;;13.90;99.90;;;;;;6100864;23;20009;-85
2023/07/27 06:23:04;;;;;;;23.20;12.68;;;13.90;99.90;;;;;;6100275;23;20097;-85
2023/07/27 06:25:30;;;;;;;23.50;12.82;;;13.90;99.90;;;;;;6101216;23;20078;-85
2023/07/27 06:27:55;;;;;;;24.17;13.15;;;13.90;99.90;;;;;;6101093;23;20324;-85
2023/07/27 06:30:21;;;;;;;26.50;13.80;;;13.90;99.90;;;;;;6100047;23;20018;-86
2023/07/27 06:32:47;;;;;;;26.73;14.15;;;14.00;99.90;;;;;;6099443;23;20390;-81
2023/07/27 06:35:13;;;;;;;25.58;14.00;;;14.20;99.90;;;;;;6126454;23;20068;-82
2023/07/27 06:37:38;;;;;;;26.48;13.77;;;14.00;99.90;;;;;;6125867;23;20335;-82
2023/07/27 06:40:05;;;;;;;23.58;13.52;;;14.00;99.90;;;;;;6100863;23;20473;-82
2023/07/27 06:42:31;;;;;;;24.35;13.95;;;14.00;99.90;;;;;;6126364;23;20025;-82
2023/07/27 06:44:56;;;;;;;25.10;13.52;;;14.10;99.90;;;;;;6125948;23;20010;-83
2023/07/27 06:47:22;;;;;;;25.42;13.93;;;14.10;99.90;;;;;;6126633;23;20013;-85
2023/07/27 06:49:48;;;;;;;22.10;13.35;;;14.20;99.90;;;;;;6126126;23;20029;-83
2023/07/27 06:52:13;;;;;;;26.48;13.27;;;14.30;99.90;;;;;;6100159;23;20014;-83
2023/07/27 06:54:39;;;;;;;22.10;13.27;;;14.20;99.90;;;;;;6100222;23;20053;-85
2023/07/27 06:57:09;;;;;;;22.60;12.82;;;14.30;99.90;;;;;;6099507;23;20049;-85
2023/07/27 06:59:36;;;;;;;21.05;12.73;;;14.30;99.90;;;;;;6100516;23;20396;-85
2023/07/27 07:02:01;;;;;;;21.55;12.32;;;14.30;99.90;;;;;;6100175;23;20085;-84
2023/07/27 07:04:29;;;;;;;21.60;12.80;;;14.30;99.90;;;;;;6125212;23;20438;-84
2023/07/27 07:06:55;;;;;;;23.23;12.45;;;14.40;99.90;;;;;;6126159;23;20050;-83
2023/07/27 07:09:21;;;;;;;20.65;11.25;;;14.50;99.90;;;;;;6097912;23;20063;-84
2023/07/27 07:11:48;;;;;;;22.98;11.68;;;15.20;99.90;;;;;;6099233;23;20018;-83
2023/07/27 07:14:14;;;;;;;19.92;11.02;;;14.50;99.90;;;;;;6100442;23;20084;-84
2023/07/27 07:16:39;;;;;;;19.73;10.73;;;14.50;99.90;;;;;;6099771;23;20108;-83
2023/07/27 07:19:05;;;;;;;20.55;11.48;;;14.60;99.90;;;;;;6125645;23;20033;-84
2023/07/27 07:21:31;;;;;;;18.67;10.77;;;15.00;99.90;;;;;;6100279;23;20442;-84
2023/07/27 07:23:57;;;;;;;19.98;11.40;;;14.60;99.90;;;;;;6100000;23;20025;-83
2023/07/27 07:26:22;;;;;;;19.25;10.95;;;14.80;99.90;;;;;;6125655;23;20016;-84
2023/07/27 07:28:48;;;;;;;18.45;10.40;;;15.40;99.90;;;;;;6126539;23;20093;-84
2023/07/27 07:31:14;;;;;;;18.20;9.85;;;15.40;99.90;;;;;;6099990;23;20140;-83
2023/07/27 07:33:40;;;;;;;16.92;9.63;;;14.60;99.90;;;;;;6099494;23;20022;-83
2023/07/27 07:36:05;;;;;;;18.48;9.95;;;14.60;99.90;;;;;;6100217;23;20447;-84
2023/07/27 07:38:31;;;;;;;18.75;9.95;;;14.60;99.90;;;;;;6099986;23;20343;-84
2023/07/27 07:40:57;;;;;;;19.08;10.15;;;14.60;99.90;;;;;;6123089;23;20081;-84
2023/07/27 07:43:23;;;;;;;18.42;10.23;;;14.60;99.90;;;;;;6100499;23;20021;-84
2023/07/27 07:45:48;;;;;;;17.08;10.45;;;14.60;99.90;;;;;;6126107;23;20009;-88
2023/07/27 07:48:14;;;;;;;20.35;11.52;;;14.60;99.90;;;;;;6099271;23;20062;-87
2023/07/27 07:50:40;;;;;;;18.42;11.07;;;14.70;99.90;;;;;;6125769;23;20018;-84
2023/07/27 07:53:05;;;;;;;16.40;11.00;;;14.60;99.90;;;;;;6100204;23;20321;-82
2023/07/27 07:55:38;;;;;;;16.33;10.93;;;14.70;99.90;;;;;;6098542;23;20014;-81
2023/07/27 07:58:03;;;;;;;18.08;11.60;;;15.30;99.90;;;;;;6099332;23;20029;-81
2023/07/27 08:00:29;;;;;;;19.40;11.77;;;15.00;99.90;;;;;;6124959;23;20009;-83
2023/07/27 08:02:55;;;;;;;19.75;12.00;;;14.60;99.90;;;;;;6125990;23;20045;-84
2023/07/27 08:05:20;;;;;;;17.17;11.18;;;14.60;99.90;;;;;;6125796;23;20339;-83
2023/07/27 08:07:46;;;;;;;16.58;10.98;;;14.60;99.90;;;;;;6098888;23;20025;-83
2023/07/27 08:10:12;;;;;;;19.20;11.63;;;14.60;99.90;;;;;;6099593;23;20445;-84
2023/07/27 08:12:38;;;;;;;19.70;12.02;;;15.00;99.90;;;;;;6125421;23;20022;-85
2023/07/27 08:15:05;;;;;;;18.77;11.73;;;14.60;99.90;;;;;;6098546;23;20081;-89
2023/07/27 08:17:31;;;;;;;17.67;10.73;;;14.60;99.90;;;;;;6100167;23;20450;-85
2023/07/27 08:20:03;;;;;;;18.10;11.02;;;14.90;99.90;;;;;;6124834;23;20018;-83
2023/07/27 08:22:35;;;;;;;17.63;10.32;;;14.70;99.90;;;;;;6098619;23;20133;-84
2023/07/27 08:25:01;;;;;;;16.08;10.88;;;14.70;99.90;;;;;;6139018;23;20045;-85
2023/07/27 08:27:39;;;;;;;17.95;10.68;;;14.80;99.90;;;;;;6154113;23;20033;-84
2023/07/27 08:30:07;;;;;;;15.95;9.90;;;14.80;99.90;;;;;;6151998;23;20045;-84
2023/07/27 08:32:52;;;;;;;16.48;9.95;;;14.80;99.90;;;;;;6152837;23;20017;-84
2023/07/27 08:35:17;;;;;;;15.05;9.52;;;14.90;99.90;;;;;;6152731;23;20013;-85
2023/07/27 08:37:48;;;;;;;15.15;10.13;;;14.80;99.90;;;;;;6151583;23;20164;-85
2023/07/27 08:40:30;;;;;;;15.20;9.60;;;14.80;99.90;;;;;;6153028;23;20096;-84
2023/07/27 08:43:11;;;;;;;15.43;9.57;;;14.90;99.90;;;;;;6152341;23;20096;-84
2023/07/27 08:45:52;;;;;;;15.30;9.57;;;15.90;99.90;;;;;;6152850;23;20457;-84
2023/07/27 08:48:18;;;;;;;13.73;9.25;;;14.90;99.90;;;;;;6155789;23;20024;-84
2023/07/27 08:50:59;;;;;;;14.15;9.00;;;15.00;99.90;;;;;;6155618;23;20017;-85
2023/07/27 08:53:30;;;;;;;13.80;9.15;;;15.50;99.90;;;;;;6156887;23;20308;-84
2023/07/27 08:56:05;;;;;;;16.17;9.05;;;14.50;99.90;;;;;;6154339;23;20045;-84
2023/07/27 08:58:37;;;;;;;14.25;8.88;;;15.00;99.90;;;;;;6152133;23;20021;-85
2023/07/27 09:01:03;;;;;;;14.32;9.35;;;15.00;99.90;;;;;;6155498;23;20009;-85
2023/07/27 09:06:51;;;;;;;14.82;9.05;;;15.00;99.90;;;;;;6154963;23;20022;-85
2023/07/27 09:11:54;;;;;;;13.82;9.18;;;15.10;99.90;;;;;;6119242;23;20447;-85
2023/07/27 09:14:20;;;;;;;15.80;9.05;;;15.80;99.90;;;;;;6125478;23;20391;-86
2023/07/27 09:17:22;;;;;;;13.98;9.45;;;15.10;99.90;;;;;;6099012;23;20018;-85
2023/07/27 09:20:12;;;;;;;15.48;9.77;;;15.10;99.90;;;;;;6099161;23;20101;-86
2023/07/27 09:22:37;;;;;;;16.27;9.95;;;15.20;99.90;;;;;;6126394;23;20021;-86
2023/07/27 09:25:12;;;;;;;15.10;9.50;;;15.30;99.90;;;;;;6125025;23;20088;-86
2023/07/27 09:27:42;;;;;;;15.27;9.63;;;15.50;99.90;;;;;;6125158;23;20036;-85
2023/07/27 09:30:48;;;;;;;16.10;10.90;;;15.50;99.90;;;;;;6099048;23;20021;-85
2023/07/27 09:33:22;;;;;;;15.98;9.38;;;15.60;99.90;;;;;;6124569;23;20022;-84
2023/07/27 09:36:03;;;;;;;14.70;9.63;;;15.60;99.90;;;;;;6124467;23;20096;-84
2023/07/27 09:38:28;;;;;;;13.65;8.80;;;15.70;99.90;;;;;;6099286;23;20018;-84
2023/07/27 09:40:54;;;;;;;16.30;9.27;;;15.70;99.90;;;;;;6123941;23;20014;-84
2023/07/27 09:43:29;;;;;;;15.18;8.77;;;15.70;99.90;;;;;;6100863;23;20446;-84
2023/07/27 09:45:58;;;;;;;11.82;7.13;;;15.80;99.90;;;;;;6099850;23;20018;-84
2023/07/27 09:48:32;;;;;;;11.07;6.97;;;16.10;99.90;;;;;;6101157;23;20017;-84
2023/07/27 09:51:01;;;;;;;11.63;6.88;;;15.90;99.90;;;;;;6100506;23;20466;-83
2023/07/27 09:53:31;;;;;;;11.35;6.40;;;15.90;99.90;;;;;;6127054;23;20088;-84
2023/07/27 09:55:58;;;;;;;10.63;6.38;;;16.00;99.90;;;;;;6100348;23;20014;-84
2023/07/27 09:58:24;;;;;;;10.15;6.18;;;16.00;99.90;;;;;;6126599;23;20018;-84
2023/07/27 10:01:04;;;;;;;10.90;6.72;;;16.10;99.90;;;;;;6100177;23;20022;-84
2023/07/27 10:03:30;;;;;;;10.68;6.50;;;16.00;99.90;;;;;;6126727;23;20021;-84
2023/07/27 10:06:06;;;;;;;10.32;6.30;;;16.10;99.90;;;;;;6100170;23;20097;-84
2023/07/27 10:08:50;;;;;;;10.38;6.43;;;16.20;99.90;;;;;;6125157;23;20014;-84
2023/07/27 10:12:07;;;;;;;10.60;6.63;;;16.20;99.90;;;;;;6097156;23;20017;-85
2023/07/27 10:14:35;;;;;;;11.20;6.38;;;16.30;99.90;;;;;;6098788;23;20018;-86
2023/07/27 10:17:15;;;;;;;11.77;6.40;;;16.30;99.90;;;;;;6100008;23;20509;-86
2023/07/27 10:20:42;;;;;;;10.52;6.10;;;15.90;99.90;;;;;;6125828;23;20342;-86
2023/07/27 10:23:10;;;;;;;11.60;7.45;;;16.20;99.90;;;;;;6126052;23;20089;-86
2023/07/27 10:26:15;;;;;;;12.05;7.50;;;16.30;99.90;;;;;;6100136;23;20018;-86
2023/07/27 10:31:44;;;;;;;10.93;7.18;;;16.40;99.90;;;;;;6100505;23;20017;-84
2023/07/27 10:34:29;;;;;;;11.38;7.22;;;16.40;99.90;;;;;;6100929;23;20085;-84
2023/07/27 10:37:16;;;;;;;11.50;7.35;;;16.50;99.90;;;;;;6099009;23;20022;-85
2023/07/27 10:39:47;;;;;;;12.90;7.65;;;16.60;99.90;;;;;;6126374;23;20018;-84
2023/07/27 10:42:34;;;;;;;11.50;7.80;;;16.60;99.90;;;;;;6099480;23;20105;-85
2023/07/27 10:45:24;;;;;;;11.93;8.02;;;16.60;99.90;;;;;;6126303;23;20462;-88
2023/07/27 10:48:15;;;;;;;11.43;7.68;;;17.20;99.90;;;;;;6125756;23;20018;-84
2023/07/27 10:50:42;;;;;;;11.50;7.85;;;16.60;99.90;;;;;;6125624;23;20018;-85
2023/07/27 10:53:22;;;;;;;13.18;9.00;;;17.50;99.90;;;;;;6098312;23;20462;-85
2023/07/27 10:55:48;;;;;;;12.25;7.95;;;16.90;99.90;;;;;;6100290;23;20021;-85
2023/07/27 10:58:17;;;;;;;11.57;7.80;;;16.90;99.90;;;;;;6098898;23;20324;-85
2023/07/27 11:01:04;;;;;;;10.88;7.15;;;16.90;99.90;;;;;;6099786;23;20018;-84
2023/07/27 11:03:37;;;;;;;11.13;6.60;;;17.00;99.90;;;;;;6126028;23;20018;-85
2023/07/27 11:06:18;;;;;;;10.40;6.17;;;16.90;99.90;;;;;;6101027;23;20018;-85
2023/07/27 11:08:44;;;;;;;9.57;5.47;;;17.10;99.90;;;;;;6100099;23;20021;-85
2023/07/27 11:11:21;;;;;;;9.45;5.25;;;17.40;99.90;;;;;;6100382;23;20037;-85
2023/07/27 11:14:05;;;;;;;9.27;5.20;;;17.00;99.90;;;;;;6126764;23;20018;-85
2023/07/27 11:16:30;;;;;;;9.18;5.05;;;17.10;99.90;;;;;;6100701;23;20046;-85
2023/07/27 11:18:57;;;;;;;9.63;5.35;;;17.00;99.90;;;;;;6125659;23;20021;-85
2023/07/27 11:21:23;;;;;;;9.52;5.15;;;17.00;99.90;;;;;;6100629;23;20010;-85
2023/07/27 11:24:08;;;;;;;10.27;5.22;;;17.10;99.90;;;;;;6099881;23;20061;-86
2023/07/27 11:26:52;;;;;;;11.00;5.20;;;17.10;99.90;;;;;;6099620;23;20065;-86
2023/07/27 11:29:18;;;;;;;9.10;4.10;;;17.10;99.90;;;;;;6127135;23;20041;-86
2023/07/27 11:35:24;;;;;;;9.88;4.88;;;17.10;99.90;;;;;;6100387;23;20018;-87
2023/07/27 11:38:08;;;;;;;10.52;4.65;;;17.20;99.90;;;;;;6099942;23;20421;-87
2023/07/27 11:40:44;;;;;;;9.95;4.80;;;17.20;99.90;;;;;;6098845;23;20018;-86
2023/07/27 11:43:10;;;;;;;10.05;5.07;;;17.40;99.90;;;;;;6100440;23;20025;-86
2023/07/27 11:46:16;;;;;;;9.00;4.85;;;17.50;99.90;;;;;;6125582;23;20793;-86
2023/07/27 11:49:05;;;;;;;9.20;4.97;;;17.60;99.90;;;;;;6103821;23;20438;-87
2023/07/27 11:51:46;;;;;;;8.88;4.60;;;17.70;99.90;;;;;;6140523;23;20070;-85
2023/07/27 11:54:37;;;;;;;9.75;4.90;;;17.90;99.90;;;;;;6101112;23;20457;-89
2023/07/27 11:57:17;;;;;;;8.90;4.80;;;17.90;99.90;;;;;;6100333;23;20089;-86
2023/07/27 12:00:13;;;;;;;9.77;4.95;;;18.00;99.90;;;;;;6096692;23;20025;-85
2023/07/27 12:02:50;;;;;;;9.23;5.18;;;18.20;99.90;;;;;;6100047;23;20185;-85
2023/07/27 12:05:19;;;;;;;9.57;4.63;;;18.20;99.90;;;;;;6100069;23;20030;-85
2023/07/27 12:07:56;;;;;;;9.65;5.00;;;18.30;99.90;;;;;;6125330;23;20021;-85
2023/07/27 12:10:54;;;;;;;9.13;4.72;;;18.20;99.90;;;;;;6099970;23;20021;-85
2023/07/27 12:13:36;;;;;;;9.45;4.70;;;18.30;99.90;;;;;;6099885;23;20073;-85
2023/07/27 12:16:19;;;;;;;9.02;4.53;;;18.20;99.90;;;;;;6126313;23;20018;-84
2023/07/27 12:18:45;;;;;;;8.77;4.75;;;18.30;99.90;;;;;;6125882;23;20134;-85
2023/07/27 12:21:29;;;;;;;9.20;5.10;;;18.40;99.90;;;;;;6125515;23;20059;-85
2023/07/27 12:23:55;;;;;;;9.50;5.45;;;18.50;99.90;;;;;;6099663;23;20018;-85
2023/07/27 12:26:20;;;;;;;9.23;5.47;;;18.40;99.90;;;;;;6126065;23;20141;-85
2023/07/27 12:29:04;;;;;;;9.13;5.25;;;18.50;99.90;;;;;;6098612;23;20014;-85
2023/07/27 12:31:31;;;;;;;10.02;5.50;;;18.40;99.90;;;;;;6099992;23;20017;-84
2023/07/27 12:33:56;;;;;;;9.50;5.28;;;18.50;99.90;;;;;;6099685;23;20454;-84
2023/07/27 12:36:22;;;;;;;10.30;5.28;;;18.50;99.90;;;;;;6099020;23;20048;-85
2023/07/27 12:39:03;;;;;;;10.25;5.45;;;18.40;99.90;;;;;;6125997;23;20016;-84
2023/07/27 12:41:29;;;;;;;9.77;5.72;;;18.30;99.90;;;;;;6125904;23;20110;-84
2023/07/27 12:43:56;;;;;;;10.75;5.63;;;18.40;99.90;;;;;;6099026;23;20021;-85
2023/07/27 12:46:37;;;;;;;11.15;6.40;;;18.30;99.90;;;;;;6125990;23;20021;-85
2023/07/27 12:49:02;;;;;;;11.30;6.32;;;18.20;99.90;;;;;;6099017;23;20022;-85
2023/07/27 12:51:28;;;;;;;11.18;6.25;;;18.30;99.90;;;;;;6099952;23;20450;-85
2023/07/27 12:53:54;;;;;;;10.73;6.28;;;18.40;99.90;;;;;;6099382;23;20026;-85
2023/07/27 12:56:38;;;;;;;11.70;6.40;;;18.00;99.90;;;;;;6124633;23;20022;-85
2023/07/27 12:59:03;;;;;;;13.18;6.13;;;18.60;99.90;;;;;;6126164;23;20097;-85
2023/07/27 13:01:29;;;;;;;10.52;5.90;;;18.70;99.90;;;;;;6099233;23;20100;-86
2023/07/27 13:04:10;;;;;;;10.00;5.47;;;18.70;99.90;;;;;;6099422;23;20077;-85
2023/07/27 13:06:48;;;;;;;9.77;5.20;;;18.60;99.90;;;;;;6099393;23;20018;-85
2023/07/27 13:09:14;;;;;;;12.60;5.57;;;18.50;99.90;;;;;;6126086;23;20018;-86
2023/07/27 13:11:40;;;;;;;11.80;5.85;;;18.50;99.90;;;;;;6097483;23;20026;-86
2023/07/27 13:14:19;;;;;;;10.15;5.60;;;18.50;99.90;;;;;;6099698;23;20109;-86
2023/07/27 13:17:00;;;;;;;11.30;5.90;;;18.50;99.90;;;;;;6125618;23;20065;-86
2023/07/27 13:19:26;;;;;;;11.30;5.63;;;18.40;99.90;;;;;;6101844;23;20101;-87
2023/07/27 13:22:01;;;;;;;10.23;5.30;;;18.50;99.90;;;;;;6101444;23;20013;-87
2023/07/27 13:24:27;;;;;;;11.25;5.72;;;18.40;99.90;;;;;;6100861;23;20346;-88
2023/07/27 13:26:53;;;;;;;10.98;5.50;;;18.50;99.90;;;;;;6101209;23;20020;-88
2023/07/27 13:29:36;;;;;;;9.95;5.15;;;18.60;99.90;;;;;;6101610;23;20186;-88
2023/07/27 13:32:02;;;;;;;11.30;5.22;;;18.40;99.90;;;;;;6100771;23;20025;-87
2023/07/27 13:34:34;;;;;;;9.98;5.53;;;18.40;99.90;;;;;;6101297;23;20097;-86
2023/07/27 13:37:02;;;;;;;10.75;5.32;;;18.40;99.90;;;;;;6100556;23;20030;-87
2023/07/27 13:39:32;;;;;;;11.50;5.32;;;18.50;99.90;;;;;;6100515;23;20145;-86
2023/07/27 13:44:57;;;;;;;10.13;5.00;;;18.60;99.90;;;;;;6126109;23;20029;-86
2023/07/27 13:51:03;;;;;;;9.38;4.70;;;18.50;99.90;;;;;;6101089;23;20060;-86
2023/07/27 13:53:29;;;;;;;8.68;4.10;;;18.80;99.90;;;;;;6125776;23;20060;-86
2023/07/27 13:56:06;;;;;;;8.82;4.40;;;18.90;99.90;;;;;;6100291;23;20018;-87
2023/07/27 13:58:39;;;;;;;8.48;4.13;;;18.80;99.90;;;;;;6101327;23;20093;-87
2023/07/27 14:01:52;;;;;;;10.95;4.30;;;18.80;99.90;;;;;;6125319;23;20018;-87
2023/07/27 14:05:32;;;;;;;11.15;4.55;;;17.90;99.90;;;;;;6083758;23;20134;-87
2023/07/27 14:07:58;;;;;;;7.18;3.08;;;18.70;99.90;;;;;;6100043;23;20391;-89
2023/07/27 14:10:27;;;;;;;5.18;2.00;;;18.70;99.90;;;;;;6127725;23;20026;-89
2023/07/27 14:12:54;;;;;;;6.85;2.30;;;18.60;99.90;;;;;;6100847;23;20029;-88